sensor_id;sensor_type;location;lat;lon;timestamp;temperature;humidity
23385;DHT22;11865;45.394;10.978;2022-09-23T00:01:20;11.90;99.90
23385;DHT22;11865;45.394;10.978;2022-09-23T00:03:48;11.90;99.90
23385;DHT22;11865;45.394;10.978;2022-09-23T00:06:20;11.70;99.90
23385;DHT22;11865;45.394;10.978;2022-09-23T00:08:49;11.60;99.90
23385;DHT22;11865;45.394;10.978;2022-09-23T00:11:22;11.50;99.90
23385;DHT22;11865;45.394;10.978;2022-09-23T00:13:53;11.60;99.90
23385;DHT22;11865;45.394;10.978;2022-09-23T00:16:27;11.50;99.90
23385;DHT22;11865;45.394;10.978;2022-09-23T00:18:55;11.40;99.90
23385;DHT22;11865;45.394;10.978;2022-09-23T00:21:22;11.60;99.90
23385;DHT22;11865;45.394;10.978;2022-09-23T00:23:51;12.10;99.90
23385;DHT22;11865;45.394;10.978;2022-09-23T00:26:21;12.40;99.90
23385;DHT22;11865;45.394;10.978;2022-09-23T00:28:49;12.40;99.90
23385;DHT22;11865;45.394;10.978;2022-09-23T00:31:24;12.60;99.90
23385;DHT22;11865;45.394;10.978;2022-09-23T00:33:53;12.90;99.90
23385;DHT22;11865;45.394;10.978;2022-09-23T00:36:21;13.00;99.90
23385;DHT22;11865;45.394;10.978;2022-09-23T00:38:49;13.10;99.90
23385;DHT22;11865;45.394;10.978;2022-09-23T00:41:17;13.10;99.90
23385;DHT22;11865;45.394;10.978;2022-09-23T00:43:53;13.20;99.90
23385;DHT22;11865;45.394;10.978;2022-09-23T00:46:28;13.20;99.90
23385;DHT22;11865;45.394;10.978;2022-09-23T00:49:00;13.10;99.90
23385;DHT22;11865;45.394;10.978;2022-09-23T00:51:33;13.10;99.90
23385;DHT22;11865;45.394;10.978;2022-09-23T00:54:03;13.10;99.90
23385;DHT22;11865;45.394;10.978;2022-09-23T00:56:33;13.10;99.90
23385;DHT22;11865;45.394;10.978;2022-09-23T00:59:01;13.10;99.90
23385;DHT22;11865;45.394;10.978;2022-09-23T01:01:29;13.00;99.90
23385;DHT22;11865;45.394;10.978;2022-09-23T01:03:57;12.90;99.90
23385;DHT22;11865;45.394;10.978;2022-09-23T01:06:25;12.70;99.90
23385;DHT22;11865;45.394;10.978;2022-09-23T01:08:52;12.60;99.90
23385;DHT22;11865;45.394;10.978;2022-09-23T01:33:57;12.80;99.00
23385;DHT22;11865;45.394;10.978;2022-09-23T01:36:46;12.90;98.70
23385;DHT22;11865;45.394;10.978;2022-09-23T01:39:35;12.90;98.70
23385;DHT22;11865;45.394;10.978;2022-09-23T01:42:17;12.80;98.70
23385;DHT22;11865;45.394;10.978;2022-09-23T01:44:59;12.80;98.90
23385;DHT22;11865;45.394;10.978;2022-09-23T01:47:29;12.80;99.00
23385;DHT22;11865;45.394;10.978;2022-09-23T01:50:13;12.70;99.00
23385;DHT22;11865;45.394;10.978;2022-09-23T01:53:06;12.70;99.10
23385;DHT22;11865;45.394;10.978;2022-09-23T01:55:39;12.60;99.30
23385;DHT22;11865;45.394;10.978;2022-09-23T01:58:25;12.60;99.50
23385;DHT22;11865;45.394;10.978;2022-09-23T02:01:03;12.60;99.40
23385;DHT22;11865;45.394;10.978;2022-09-23T02:03:57;12.60;99.30
23385;DHT22;11865;45.394;10.978;2022-09-23T02:06:33;12.60;99.30
23385;DHT22;11865;45.394;10.978;2022-09-23T02:09:14;12.60;99.40
23385;DHT22;11865;45.394;10.978;2022-09-23T02:11:45;12.60;99.30
23385;DHT22;11865;45.394;10.978;2022-09-23T02:14:24;12.60;99.20
23385;DHT22;11865;45.394;10.978;2022-09-23T02:16:58;12.50;99.60
23385;DHT22;11865;45.394;10.978;2022-09-23T02:19:33;12.40;99.60
23385;DHT22;11865;45.394;10.978;2022-09-23T02:22:07;12.30;99.90
23385;DHT22;11865;45.394;10.978;2022-09-23T02:24:37;12.30;99.80
23385;DHT22;11865;45.394;10.978;2022-09-23T02:27:28;12.40;99.90
23385;DHT22;11865;45.394;10.978;2022-09-23T02:40:39;12.00;99.90
23385;DHT22;11865;45.394;10.978;2022-09-23T02:45:41;12.00;99.90
23385;DHT22;11865;45.394;10.978;2022-09-23T02:48:14;12.00;99.90
23385;DHT22;11865;45.394;10.978;2022-09-23T02:50:44;12.00;99.90
23385;DHT22;11865;45.394;10.978;2022-09-23T02:53:14;12.00;99.90
23385;DHT22;11865;45.394;10.978;2022-09-23T02:55:42;11.90;99.90
23385;DHT22;11865;45.394;10.978;2022-09-23T02:58:11;11.70;99.90
23385;DHT22;11865;45.394;10.978;2022-09-23T03:00:59;11.40;99.90
23385;DHT22;11865;45.394;10.978;2022-09-23T03:11:51;10.90;99.90
23385;DHT22;11865;45.394;10.978;2022-09-23T03:14:31;11.10;99.90
23385;DHT22;11865;45.394;10.978;2022-09-23T03:17:04;11.00;99.90
23385;DHT22;11865;45.394;10.978;2022-09-23T03:22:11;10.70;99.90
23385;DHT22;11865;45.394;10.978;2022-09-23T03:24:41;10.60;99.90
23385;DHT22;11865;45.394;10.978;2022-09-23T03:27:14;10.70;99.90
23385;DHT22;11865;45.394;10.978;2022-09-23T03:29:47;10.80;99.90
23385;DHT22;11865;45.394;10.978;2022-09-23T03:32:17;11.10;99.90
23385;DHT22;11865;45.394;10.978;2022-09-23T03:34:48;11.20;99.90
23385;DHT22;11865;45.394;10.978;2022-09-23T03:42:37;11.30;99.90
23385;DHT22;11865;45.394;10.978;2022-09-23T03:45:09;11.40;99.90
23385;DHT22;11865;45.394;10.978;2022-09-23T03:47:39;11.40;99.90
23385;DHT22;11865;45.394;10.978;2022-09-23T03:50:08;11.50;99.90
23385;DHT22;11865;45.394;10.978;2022-09-23T03:52:36;11.40;99.90
23385;DHT22;11865;45.394;10.978;2022-09-23T03:55:06;11.50;99.90
23385;DHT22;11865;45.394;10.978;2022-09-23T03:57:34;11.40;99.90
23385;DHT22;11865;45.394;10.978;2022-09-23T04:00:05;11.30;99.90
23385;DHT22;11865;45.394;10.978;2022-09-23T04:02:40;11.00;99.90
23385;DHT22;11865;45.394;10.978;2022-09-23T04:05:09;11.10;99.90
23385;DHT22;11865;45.394;10.978;2022-09-23T04:07:36;11.10;99.90
23385;DHT22;11865;45.394;10.978;2022-09-23T04:10:05;11.10;99.90
23385;DHT22;11865;45.394;10.978;2022-09-23T04:12:32;11.20;99.90
23385;DHT22;11865;45.394;10.978;2022-09-23T04:14:59;11.40;99.90
23385;DHT22;11865;45.394;10.978;2022-09-23T04:17:27;11.50;99.90
23385;DHT22;11865;45.394;10.978;2022-09-23T04:19:54;11.50;99.90
23385;DHT22;11865;45.394;10.978;2022-09-23T04:22:22;11.30;99.90
23385;DHT22;11865;45.394;10.978;2022-09-23T04:24:49;11.50;99.90
23385;DHT22;11865;45.394;10.978;2022-09-23T04:27:17;11.60;99.90
23385;DHT22;11865;45.394;10.978;2022-09-23T04:29:44;11.70;99.90
23385;DHT22;11865;45.394;10.978;2022-09-23T04:32:12;11.70;99.90
23385;DHT22;11865;45.394;10.978;2022-09-23T04:34:39;11.50;99.90
23385;DHT22;11865;45.394;10.978;2022-09-23T04:37:07;11.00;99.90
23385;DHT22;11865;45.394;10.978;2022-09-23T04:39:34;10.70;99.90
23385;DHT22;11865;45.394;10.978;2022-09-23T04:42:01;10.60;99.90
23385;DHT22;11865;45.394;10.978;2022-09-23T04:44:30;10.30;99.90
23385;DHT22;11865;45.394;10.978;2022-09-23T04:46:57;10.50;99.90
23385;DHT22;11865;45.394;10.978;2022-09-23T04:49:25;10.50;99.90
23385;DHT22;11865;45.394;10.978;2022-09-23T04:51:52;10.20;99.90
23385;DHT22;11865;45.394;10.978;2022-09-23T04:54:20;10.10;99.90
23385;DHT22;11865;45.394;10.978;2022-09-23T04:56:47;10.00;99.90
23385;DHT22;11865;45.394;10.978;2022-09-23T04:59:15;10.00;99.90
23385;DHT22;11865;45.394;10.978;2022-09-23T05:01:42;10.00;99.90
23385;DHT22;11865;45.394;10.978;2022-09-23T05:04:10;10.00;99.90
23385;DHT22;11865;45.394;10.978;2022-09-23T05:06:40;10.00;99.90
23385;DHT22;11865;45.394;10.978;2022-09-23T05:09:15;10.00;99.90
23385;DHT22;11865;45.394;10.978;2022-09-23T05:11:44;10.00;99.90
23385;DHT22;11865;45.394;10.978;2022-09-23T05:14:11;10.00;99.90
23385;DHT22;11865;45.394;10.978;2022-09-23T05:16:39;9.90;99.90
23385;DHT22;11865;45.394;10.978;2022-09-23T05:19:07;9.90;99.90
23385;DHT22;11865;45.394;10.978;2022-09-23T05:21:34;10.20;99.90
23385;DHT22;11865;45.394;10.978;2022-09-23T05:24:04;10.30;99.90
23385;DHT22;11865;45.394;10.978;2022-09-23T05:26:31;10.30;99.90
23385;DHT22;11865;45.394;10.978;2022-09-23T05:28:59;10.30;99.90
23385;DHT22;11865;45.394;10.978;2022-09-23T05:31:28;10.30;99.90
23385;DHT22;11865;45.394;10.978;2022-09-23T05:34:01;10.50;99.90
23385;DHT22;11865;45.394;10.978;2022-09-23T05:36:31;10.70;99.90
23385;DHT22;11865;45.394;10.978;2022-09-23T05:39:05;10.70;99.90
23385;DHT22;11865;45.394;10.978;2022-09-23T05:41:34;10.70;99.90
23385;DHT22;11865;45.394;10.978;2022-09-23T05:44:02;10.90;99.90
23385;DHT22;11865;45.394;10.978;2022-09-23T05:46:30;11.10;99.90
23385;DHT22;11865;45.394;10.978;2022-09-23T05:48:58;11.60;99.90
23385;DHT22;11865;45.394;10.978;2022-09-23T05:51:29;11.90;99.90
23385;DHT22;11865;45.394;10.978;2022-09-23T05:53:58;12.20;99.90
23385;DHT22;11865;45.394;10.978;2022-09-23T05:56:27;12.20;99.90
23385;DHT22;11865;45.394;10.978;2022-09-23T05:58:56;12.40;99.00
23385;DHT22;11865;45.394;10.978;2022-09-23T06:01:26;12.70;98.30
23385;DHT22;11865;45.394;10.978;2022-09-23T06:03:56;12.90;99.90
23385;DHT22;11865;45.394;10.978;2022-09-23T06:06:27;13.20;97.80
23385;DHT22;11865;45.394;10.978;2022-09-23T06:08:55;13.60;96.30
23385;DHT22;11865;45.394;10.978;2022-09-23T06:11:22;14.70;94.30
23385;DHT22;11865;45.394;10.978;2022-09-23T06:13:54;16.50;91.60
23385;DHT22;11865;45.394;10.978;2022-09-23T06:16:22;17.30;88.60
23385;DHT22;11865;45.394;10.978;2022-09-23T06:18:49;18.90;83.80
23385;DHT22;11865;45.394;10.978;2022-09-23T06:21:17;19.50;81.00
23385;DHT22;11865;45.394;10.978;2022-09-23T06:23:45;20.10;79.40
23385;DHT22;11865;45.394;10.978;2022-09-23T06:26:14;20.30;76.70
23385;DHT22;11865;45.394;10.978;2022-09-23T06:28:43;20.70;74.10
23385;DHT22;11865;45.394;10.978;2022-09-23T06:31:14;21.00;74.60
23385;DHT22;11865;45.394;10.978;2022-09-23T06:33:42;21.00;72.70
23385;DHT22;11865;45.394;10.978;2022-09-23T06:36:12;20.80;74.20
23385;DHT22;11865;45.394;10.978;2022-09-23T06:38:56;20.80;73.70
23385;DHT22;11865;45.394;10.978;2022-09-23T06:41:24;21.50;71.50
23385;DHT22;11865;45.394;10.978;2022-09-23T06:43:55;20.90;71.80
23385;DHT22;11865;45.394;10.978;2022-09-23T06:46:22;21.40;72.60
23385;DHT22;11865;45.394;10.978;2022-09-23T06:48:51;21.30;71.20
23385;DHT22;11865;45.394;10.978;2022-09-23T06:51:18;21.50;76.80
23385;DHT22;11865;45.394;10.978;2022-09-23T06:53:49;20.10;80.70
23385;DHT22;11865;45.394;10.978;2022-09-23T06:56:17;19.50;83.00
23385;DHT22;11865;45.394;10.978;2022-09-23T06:58:46;20.60;83.00
23385;DHT22;11865;45.394;10.978;2022-09-23T07:01:15;21.50;80.40
23385;DHT22;11865;45.394;10.978;2022-09-23T07:03:44;21.70;80.60
23385;DHT22;11865;45.394;10.978;2022-09-23T07:06:13;21.00;79.60
23385;DHT22;11865;45.394;10.978;2022-09-23T07:08:44;20.00;82.40
23385;DHT22;11865;45.394;10.978;2022-09-23T07:11:14;19.20;82.00
23385;DHT22;11865;45.394;10.978;2022-09-23T07:13:42;19.10;85.50
23385;DHT22;11865;45.394;10.978;2022-09-23T07:16:10;18.60;85.00
23385;DHT22;11865;45.394;10.978;2022-09-23T07:18:38;18.40;89.40
23385;DHT22;11865;45.394;10.978;2022-09-23T07:21:09;18.00;89.10
23385;DHT22;11865;45.394;10.978;2022-09-23T07:23:44;17.80;86.80
23385;DHT22;11865;45.394;10.978;2022-09-23T07:26:13;17.70;89.10
23385;DHT22;11865;45.394;10.978;2022-09-23T07:28:41;17.50;89.20
23385;DHT22;11865;45.394;10.978;2022-09-23T07:31:14;17.40;90.40
23385;DHT22;11865;45.394;10.978;2022-09-23T07:33:48;17.50;90.90
23385;DHT22;11865;45.394;10.978;2022-09-23T07:36:17;17.40;90.50
23385;DHT22;11865;45.394;10.978;2022-09-23T07:38:45;17.30;91.20
23385;DHT22;11865;45.394;10.978;2022-09-23T07:41:17;17.40;92.10
23385;DHT22;11865;45.394;10.978;2022-09-23T07:43:45;17.30;93.30
23385;DHT22;11865;45.394;10.978;2022-09-23T07:46:15;17.40;92.50
23385;DHT22;11865;45.394;10.978;2022-09-23T07:48:44;17.50;92.80
23385;DHT22;11865;45.394;10.978;2022-09-23T07:51:17;17.60;93.70
23385;DHT22;11865;45.394;10.978;2022-09-23T07:53:49;17.70;92.80
23385;DHT22;11865;45.394;10.978;2022-09-23T07:56:18;17.80;93.90
23385;DHT22;11865;45.394;10.978;2022-09-23T07:58:46;17.80;93.90
23385;DHT22;11865;45.394;10.978;2022-09-23T08:01:43;17.90;93.50
23385;DHT22;11865;45.394;10.978;2022-09-23T08:04:17;17.90;93.30
23385;DHT22;11865;45.394;10.978;2022-09-23T08:06:51;18.10;93.40
23385;DHT22;11865;45.394;10.978;2022-09-23T08:09:22;18.00;93.30
23385;DHT22;11865;45.394;10.978;2022-09-23T08:11:51;18.20;93.60
23385;DHT22;11865;45.394;10.978;2022-09-23T08:14:18;18.30;92.40
23385;DHT22;11865;45.394;10.978;2022-09-23T08:16:48;18.20;92.30
23385;DHT22;11865;45.394;10.978;2022-09-23T08:19:16;18.30;93.10
23385;DHT22;11865;45.394;10.978;2022-09-23T08:21:44;18.30;91.90
23385;DHT22;11865;45.394;10.978;2022-09-23T08:24:16;18.30;92.50
23385;DHT22;11865;45.394;10.978;2022-09-23T08:26:45;18.40;92.50
23385;DHT22;11865;45.394;10.978;2022-09-23T08:29:14;18.50;91.80
23385;DHT22;11865;45.394;10.978;2022-09-23T08:31:42;18.60;91.40
23385;DHT22;11865;45.394;10.978;2022-09-23T08:34:10;18.60;90.80
23385;DHT22;11865;45.394;10.978;2022-09-23T08:36:37;18.80;91.10
23385;DHT22;11865;45.394;10.978;2022-09-23T08:39:05;18.80;89.70
23385;DHT22;11865;45.394;10.978;2022-09-23T08:44:41;18.80;89.10
23385;DHT22;11865;45.394;10.978;2022-09-23T08:47:24;18.70;90.90
23385;DHT22;11865;45.394;10.978;2022-09-23T08:49:59;18.80;91.10
23385;DHT22;11865;45.394;10.978;2022-09-23T08:52:33;18.90;88.90
23385;DHT22;11865;45.394;10.978;2022-09-23T08:55:03;18.80;86.50
23385;DHT22;11865;45.394;10.978;2022-09-23T09:03:54;18.90;91.00
23385;DHT22;11865;45.394;10.978;2022-09-23T09:08:56;18.90;89.20
23385;DHT22;11865;45.394;10.978;2022-09-23T09:11:45;18.90;90.00
23385;DHT22;11865;45.394;10.978;2022-09-23T09:14:30;18.80;89.30
23385;DHT22;11865;45.394;10.978;2022-09-23T09:17:09;18.70;90.10
23385;DHT22;11865;45.394;10.978;2022-09-23T09:25:50;18.70;88.60
23385;DHT22;11865;45.394;10.978;2022-09-23T09:28:28;18.80;88.90
23385;DHT22;11865;45.394;10.978;2022-09-23T09:31:01;18.80;90.00
23385;DHT22;11865;45.394;10.978;2022-09-23T09:33:41;18.90;87.30
23385;DHT22;11865;45.394;10.978;2022-09-23T09:36:22;18.80;86.10
23385;DHT22;11865;45.394;10.978;2022-09-23T09:38:53;19.20;85.30
23385;DHT22;11865;45.394;10.978;2022-09-23T09:41:26;19.20;84.70
23385;DHT22;11865;45.394;10.978;2022-09-23T09:43:59;19.30;83.80
23385;DHT22;11865;45.394;10.978;2022-09-23T09:46:50;19.00;79.50
23385;DHT22;11865;45.394;10.978;2022-09-23T09:49:28;19.20;85.10
23385;DHT22;11865;45.394;10.978;2022-09-23T09:52:21;19.10;85.50
23385;DHT22;11865;45.394;10.978;2022-09-23T09:54:49;19.20;80.00
23385;DHT22;11865;45.394;10.978;2022-09-23T09:57:38;19.20;86.40
23385;DHT22;11865;45.394;10.978;2022-09-23T10:03:00;19.40;84.00
23385;DHT22;11865;45.394;10.978;2022-09-23T10:05:35;19.50;84.00
23385;DHT22;11865;45.394;10.978;2022-09-23T10:08:23;19.30;79.10
23385;DHT22;11865;45.394;10.978;2022-09-23T10:13:26;19.20;80.70
23385;DHT22;11865;45.394;10.978;2022-09-23T10:16:00;19.20;82.00
23385;DHT22;11865;45.394;10.978;2022-09-23T10:21:11;19.10;82.60
23385;DHT22;11865;45.394;10.978;2022-09-23T10:23:44;19.50;83.30
23385;DHT22;11865;45.394;10.978;2022-09-23T10:26:13;19.80;80.20
23385;DHT22;11865;45.394;10.978;2022-09-23T10:28:49;19.60;80.00
23385;DHT22;11865;45.394;10.978;2022-09-23T10:33:59;19.40;82.30
23385;DHT22;11865;45.394;10.978;2022-09-23T10:36:28;19.40;82.40
23385;DHT22;11865;45.394;10.978;2022-09-23T10:38:58;19.70;81.60
23385;DHT22;11865;45.394;10.978;2022-09-23T10:45:17;19.80;78.30
23385;DHT22;11865;45.394;10.978;2022-09-23T10:51:50;19.50;78.10
23385;DHT22;11865;45.394;10.978;2022-09-23T11:17:43;19.90;80.30
23385;DHT22;11865;45.394;10.978;2022-09-23T11:24:05;19.90;80.00
23385;DHT22;11865;45.394;10.978;2022-09-23T11:32:50;19.60;77.40
23385;DHT22;11865;45.394;10.978;2022-09-23T11:35:32;19.80;79.10
23385;DHT22;11865;45.394;10.978;2022-09-23T11:38:09;19.80;76.50
23385;DHT22;11865;45.394;10.978;2022-09-23T11:40:41;19.70;80.30
23385;DHT22;11865;45.394;10.978;2022-09-23T11:43:21;20.00;81.50
23385;DHT22;11865;45.394;10.978;2022-09-23T11:46:00;20.20;81.40
23385;DHT22;11865;45.394;10.978;2022-09-23T11:48:41;20.40;77.20
23385;DHT22;11865;45.394;10.978;2022-09-23T11:54:10;20.20;74.80
23385;DHT22;11865;45.394;10.978;2022-09-23T11:56:52;20.30;78.80
23385;DHT22;11865;45.394;10.978;2022-09-23T11:59:34;20.40;74.80
23385;DHT22;11865;45.394;10.978;2022-09-23T12:05:11;20.60;75.50
23385;DHT22;11865;45.394;10.978;2022-09-23T12:07:54;20.50;78.20
23385;DHT22;11865;45.394;10.978;2022-09-23T12:10:44;20.60;77.20
23385;DHT22;11865;45.394;10.978;2022-09-23T12:26:22;20.50;75.90
23385;DHT22;11865;45.394;10.978;2022-09-23T12:29:02;20.60;76.80
23385;DHT22;11865;45.394;10.978;2022-09-23T12:31:36;20.50;75.40
23385;DHT22;11865;45.394;10.978;2022-09-23T12:34:28;20.50;78.10
23385;DHT22;11865;45.394;10.978;2022-09-23T12:37:03;20.70;78.70
23385;DHT22;11865;45.394;10.978;2022-09-23T12:39:35;20.70;76.50
23385;DHT22;11865;45.394;10.978;2022-09-23T12:42:13;20.70;75.70
23385;DHT22;11865;45.394;10.978;2022-09-23T12:44:46;20.40;75.10
23385;DHT22;11865;45.394;10.978;2022-09-23T12:49:51;20.50;75.10
23385;DHT22;11865;45.394;10.978;2022-09-23T12:52:28;20.70;76.40
23385;DHT22;11865;45.394;10.978;2022-09-23T12:55:52;20.70;76.10
23385;DHT22;11865;45.394;10.978;2022-09-23T12:58:00;20.70;75.00
23385;DHT22;11865;45.394;10.978;2022-09-23T13:00:29;20.70;74.70
23385;DHT22;11865;45.394;10.978;2022-09-23T13:03:00;20.70;75.30
23385;DHT22;11865;45.394;10.978;2022-09-23T13:06:00;20.70;74.10
23385;DHT22;11865;45.394;10.978;2022-09-23T13:08:46;20.80;76.40
23385;DHT22;11865;45.394;10.978;2022-09-23T13:11:25;21.00;75.80
23385;DHT22;11865;45.394;10.978;2022-09-23T13:13:55;21.10;75.50
23385;DHT22;11865;45.394;10.978;2022-09-23T13:16:35;21.00;73.60
23385;DHT22;11865;45.394;10.978;2022-09-23T13:27:16;20.70;73.90
23385;DHT22;11865;45.394;10.978;2022-09-23T13:30:15;20.70;76.10
23385;DHT22;11865;45.394;10.978;2022-09-23T13:35:48;20.90;72.70
23385;DHT22;11865;45.394;10.978;2022-09-23T13:40:58;21.10;73.40
23385;DHT22;11865;45.394;10.978;2022-09-23T13:43:36;21.10;73.20
23385;DHT22;11865;45.394;10.978;2022-09-23T13:46:15;20.90;71.10
23385;DHT22;11865;45.394;10.978;2022-09-23T13:48:45;20.80;72.30
23385;DHT22;11865;45.394;10.978;2022-09-23T13:51:20;20.90;74.60
23385;DHT22;11865;45.394;10.978;2022-09-23T13:53:53;21.20;75.20
23385;DHT22;11865;45.394;10.978;2022-09-23T13:56:22;21.20;73.60
23385;DHT22;11865;45.394;10.978;2022-09-23T13:58:51;21.30;73.50
23385;DHT22;11865;45.394;10.978;2022-09-23T14:03:55;21.10;74.10
23385;DHT22;11865;45.394;10.978;2022-09-23T14:06:24;21.10;71.10
23385;DHT22;11865;45.394;10.978;2022-09-23T14:08:53;21.00;73.20
23385;DHT22;11865;45.394;10.978;2022-09-23T14:11:29;20.80;74.80
23385;DHT22;11865;45.394;10.978;2022-09-23T14:13:59;21.00;76.20
23385;DHT22;11865;45.394;10.978;2022-09-23T14:16:29;21.10;74.40
23385;DHT22;11865;45.394;10.978;2022-09-23T14:18:58;21.20;73.40
23385;DHT22;11865;45.394;10.978;2022-09-23T14:21:34;21.30;75.20
23385;DHT22;11865;45.394;10.978;2022-09-23T14:24:22;21.40;73.10
23385;DHT22;11865;45.394;10.978;2022-09-23T14:29:29;21.50;72.30
23385;DHT22;11865;45.394;10.978;2022-09-23T14:32:03;21.60;70.10
23385;DHT22;11865;45.394;10.978;2022-09-23T14:40:23;21.70;71.70
23385;DHT22;11865;45.394;10.978;2022-09-23T14:43:12;21.60;73.00
23385;DHT22;11865;45.394;10.978;2022-09-23T14:45:48;21.40;71.80
23385;DHT22;11865;45.394;10.978;2022-09-23T14:48:21;21.60;73.90
23385;DHT22;11865;45.394;10.978;2022-09-23T14:51:01;21.70;75.00
23385;DHT22;11865;45.394;10.978;2022-09-23T14:58:42;21.50;72.90
23385;DHT22;11865;45.394;10.978;2022-09-23T15:07:04;21.60;72.10
23385;DHT22;11865;45.394;10.978;2022-09-23T15:09:38;21.60;74.10
23385;DHT22;11865;45.394;10.978;2022-09-23T15:12:17;21.60;70.90
23385;DHT22;11865;45.394;10.978;2022-09-23T15:14:52;21.70;70.80
23385;DHT22;11865;45.394;10.978;2022-09-23T15:17:29;21.50;71.80
23385;DHT22;11865;45.394;10.978;2022-09-23T15:20:05;21.40;72.60
23385;DHT22;11865;45.394;10.978;2022-09-23T15:22:45;21.30;71.50
23385;DHT22;11865;45.394;10.978;2022-09-23T15:25:25;21.10;74.20
23385;DHT22;11865;45.394;10.978;2022-09-23T15:28:15;21.10;72.20
23385;DHT22;11865;45.394;10.978;2022-09-23T15:30:44;20.80;76.00
23385;DHT22;11865;45.394;10.978;2022-09-23T15:33:12;21.00;71.90
23385;DHT22;11865;45.394;10.978;2022-09-23T15:35:44;20.90;76.50
23385;DHT22;11865;45.394;10.978;2022-09-23T15:38:12;21.10;73.70
23385;DHT22;11865;45.394;10.978;2022-09-23T15:40:40;21.20;73.50
23385;DHT22;11865;45.394;10.978;2022-09-23T15:43:23;21.00;74.10
23385;DHT22;11865;45.394;10.978;2022-09-23T15:45:56;21.20;73.70
23385;DHT22;11865;45.394;10.978;2022-09-23T15:48:30;21.10;74.50
23385;DHT22;11865;45.394;10.978;2022-09-23T15:51:04;21.00;73.40
23385;DHT22;11865;45.394;10.978;2022-09-23T15:53:33;21.00;72.20
23385;DHT22;11865;45.394;10.978;2022-09-23T15:56:00;20.90;75.40
23385;DHT22;11865;45.394;10.978;2022-09-23T15:58:28;20.90;76.20
23385;DHT22;11865;45.394;10.978;2022-09-23T16:00:56;20.90;74.80
23385;DHT22;11865;45.394;10.978;2022-09-23T16:03:25;20.70;76.60
23385;DHT22;11865;45.394;10.978;2022-09-23T16:05:57;20.80;73.60
23385;DHT22;11865;45.394;10.978;2022-09-23T16:08:27;20.70;73.20
23385;DHT22;11865;45.394;10.978;2022-09-23T16:10:55;20.70;74.10
23385;DHT22;11865;45.394;10.978;2022-09-23T16:13:22;20.70;75.20
23385;DHT22;11865;45.394;10.978;2022-09-23T16:15:50;20.60;75.50
23385;DHT22;11865;45.394;10.978;2022-09-23T16:18:18;20.50;76.00
23385;DHT22;11865;45.394;10.978;2022-09-23T16:20:45;20.40;76.80
23385;DHT22;11865;45.394;10.978;2022-09-23T16:26:03;20.00;81.70
23385;DHT22;11865;45.394;10.978;2022-09-23T16:28:31;19.90;81.40
23385;DHT22;11865;45.394;10.978;2022-09-23T16:30:58;19.70;85.10
23385;DHT22;11865;45.394;10.978;2022-09-23T16:33:25;19.60;86.40
23385;DHT22;11865;45.394;10.978;2022-09-23T16:35:54;19.40;86.70
23385;DHT22;11865;45.394;10.978;2022-09-23T16:38:21;19.30;84.10
23385;DHT22;11865;45.394;10.978;2022-09-23T16:40:49;19.40;85.20
23385;DHT22;11865;45.394;10.978;2022-09-23T16:43:16;19.30;86.90
23385;DHT22;11865;45.394;10.978;2022-09-23T16:45:45;19.20;84.80
23385;DHT22;11865;45.394;10.978;2022-09-23T16:48:13;19.00;87.40
23385;DHT22;11865;45.394;10.978;2022-09-23T16:50:40;18.90;89.40
23385;DHT22;11865;45.394;10.978;2022-09-23T16:53:10;18.70;89.80
23385;DHT22;11865;45.394;10.978;2022-09-23T16:55:37;18.50;91.00
23385;DHT22;11865;45.394;10.978;2022-09-23T16:58:05;18.30;91.40
23385;DHT22;11865;45.394;10.978;2022-09-23T17:00:32;18.00;92.30
23385;DHT22;11865;45.394;10.978;2022-09-23T17:03:18;17.70;93.10
23385;DHT22;11865;45.394;10.978;2022-09-23T17:06:04;17.50;93.80
23385;DHT22;11865;45.394;10.978;2022-09-23T17:08:34;17.40;95.00
23385;DHT22;11865;45.394;10.978;2022-09-23T17:11:01;17.00;95.80
23385;DHT22;11865;45.394;10.978;2022-09-23T17:13:29;16.90;95.40
23385;DHT22;11865;45.394;10.978;2022-09-23T17:15:57;16.80;95.70
23385;DHT22;11865;45.394;10.978;2022-09-23T17:18:25;16.70;95.80
23385;DHT22;11865;45.394;10.978;2022-09-23T17:21:10;16.50;95.70
23385;DHT22;11865;45.394;10.978;2022-09-23T17:23:38;16.40;95.40
23385;DHT22;11865;45.394;10.978;2022-09-23T17:26:06;16.40;96.00
23385;DHT22;11865;45.394;10.978;2022-09-23T17:28:38;16.30;96.50
23385;DHT22;11865;45.394;10.978;2022-09-23T17:31:06;16.20;97.40
23385;DHT22;11865;45.394;10.978;2022-09-23T17:33:35;16.10;97.50
23385;DHT22;11865;45.394;10.978;2022-09-23T17:36:09;16.00;97.50
23385;DHT22;11865;45.394;10.978;2022-09-23T17:38:37;16.00;96.60
23385;DHT22;11865;45.394;10.978;2022-09-23T17:41:08;15.90;97.70
23385;DHT22;11865;45.394;10.978;2022-09-23T17:43:35;15.90;97.50
23385;DHT22;11865;45.394;10.978;2022-09-23T17:46:06;15.80;96.20
23385;DHT22;11865;45.394;10.978;2022-09-23T17:48:38;15.70;97.80
23385;DHT22;11865;45.394;10.978;2022-09-23T17:51:11;15.60;98.50
23385;DHT22;11865;45.394;10.978;2022-09-23T17:53:40;15.60;98.50
23385;DHT22;11865;45.394;10.978;2022-09-23T17:56:17;15.50;98.10
23385;DHT22;11865;45.394;10.978;2022-09-23T17:58:46;15.40;98.50
23385;DHT22;11865;45.394;10.978;2022-09-23T18:01:16;15.40;98.90
23385;DHT22;11865;45.394;10.978;2022-09-23T18:03:44;15.40;98.60
23385;DHT22;11865;45.394;10.978;2022-09-23T18:06:14;15.30;99.30
23385;DHT22;11865;45.394;10.978;2022-09-23T18:08:43;15.20;99.50
23385;DHT22;11865;45.394;10.978;2022-09-23T18:11:22;15.20;99.50
23385;DHT22;11865;45.394;10.978;2022-09-23T18:13:59;15.00;99.50
23385;DHT22;11865;45.394;10.978;2022-09-23T18:16:29;15.00;99.70
23385;DHT22;11865;45.394;10.978;2022-09-23T18:19:01;14.90;99.90
23385;DHT22;11865;45.394;10.978;2022-09-23T18:21:32;14.80;99.90
23385;DHT22;11865;45.394;10.978;2022-09-23T18:24:00;14.80;99.20
23385;DHT22;11865;45.394;10.978;2022-09-23T18:26:48;14.80;99.40
23385;DHT22;11865;45.394;10.978;2022-09-23T18:29:16;14.70;99.90
23385;DHT22;11865;45.394;10.978;2022-09-23T18:31:46;14.60;99.90
23385;DHT22;11865;45.394;10.978;2022-09-23T18:34:15;14.60;99.90
23385;DHT22;11865;45.394;10.978;2022-09-23T18:36:43;14.50;99.90
23385;DHT22;11865;45.394;10.978;2022-09-23T18:39:11;14.60;99.90
23385;DHT22;11865;45.394;10.978;2022-09-23T18:41:40;14.60;99.90
23385;DHT22;11865;45.394;10.978;2022-09-23T18:44:08;15.00;96.20
23385;DHT22;11865;45.394;10.978;2022-09-23T18:46:38;15.60;93.30
23385;DHT22;11865;45.394;10.978;2022-09-23T18:49:06;16.20;91.70